Time;durP1;ratioP1;P1;durP2;ratioP2;P2;SDS_P1;SDS_P2;PMS_P1;PMS_P2;Temp;Humidity;BMP_temperature;BMP_pressure;BME280_temperature;BME280_humidity;BME280_pressure;Samples;Min_cycle;Max_cycle;Signal;HPM_P1;HPM_P2
2022/10/23 00:00:02;;;;;;;6.47;4.55;;;;;;;8.60;100.00;96087.03;1027476;28;20392;-72
2022/10/23 00:00:32;;;;;;;7.78;4.32;;;;;;;8.63;100.00;96085.75;1026868;28;20484;-73
2022/10/23 00:01:23;;;;;;;5.28;4.28;;;;;;;8.59;100.00;96080.22;1027748;28;20349;-70
2022/10/23 00:01:53;;;;;;;7.90;3.95;;;;;;;8.64;100.00;96089.94;1025455;28;20020;-72
2022/10/23 00:02:24;;;;;;;6.47;4.45;;;;;;;8.63;100.00;96083.16;1017871;29;20028;-71
2022/10/23 00:02:55;;;;;;;11.68;4.30;;;;;;;8.60;100.00;96086.25;1019131;29;20028;-72
2022/10/23 00:03:25;;;;;;;5.65;3.80;;;;;;;8.63;100.00;96081.31;1022081;28;20819;-71
2022/10/23 00:03:58;;;;;;;5.35;3.80;;;;;;;8.65;100.00;96097.56;1026673;28;20258;-71
2022/10/23 00:04:28;;;;;;;9.88;4.25;;;;;;;8.66;100.00;96087.91;1028731;28;20023;-73
2022/10/23 00:04:59;;;;;;;10.25;4.30;;;;;;;8.65;100.00;96092.34;1028591;28;20258;-73
2022/10/23 00:05:29;;;;;;;5.68;3.60;;;;;;;8.65;100.00;96092.34;1031230;28;20021;-71
2022/10/23 00:06:03;;;;;;;8.55;3.80;;;;;;;8.57;100.00;96084.91;1034917;28;20045;-72
2022/10/23 00:06:34;;;;;;;6.22;3.78;;;;;;;8.61;100.00;96082.59;1036724;28;20067;-73
2022/10/23 00:07:04;;;;;;;6.32;4.07;;;;;;;8.59;100.00;96087.28;1031034;28;20257;-72
2022/10/23 00:07:35;;;;;;;5.40;3.83;;;;;;;8.57;100.00;96082.28;1027589;28;20019;-73
2022/10/23 00:08:05;;;;;;;7.53;3.80;;;;;;;8.54;100.00;96082.75;1027003;28;20026;-72
2022/10/23 00:08:36;;;;;;;10.60;4.28;;;;;;;8.55;100.00;96081.75;1035053;28;20030;-73
2022/10/23 00:09:07;;;;;;;8.25;4.00;;;;;;;8.61;100.00;96088.59;1039250;28;20036;-72
2022/10/23 00:09:37;;;;;;;7.70;3.65;;;;;;;8.55;100.00;96079.13;1039123;28;20025;-72
2022/10/23 00:10:08;;;;;;;8.13;3.85;;;;;;;8.55;100.00;96081.75;1038869;28;20009;-72
2022/10/23 00:10:40;;;;;;;5.07;3.70;;;;;;;8.58;100.00;96083.84;1039351;28;20032;-71
2022/10/23 00:11:12;;;;;;;5.82;3.83;;;;;;;8.58;100.00;96081.25;1043146;28;20842;-73
2022/10/23 00:11:43;;;;;;;6.28;4.35;;;;;;;8.59;100.00;96080.22;1038827;28;20326;-71
2022/10/23 00:12:13;;;;;;;8.40;4.10;;;;;;;8.65;100.00;96084.50;1030240;28;20687;-71
2022/10/23 00:12:44;;;;;;;7.20;3.78;;;;;;;8.67;100.00;96087.66;1030818;28;20257;-72
2022/10/23 00:13:15;;;;;;;7.43;4.07;;;;;;;8.68;100.00;96089.22;1030772;28;20023;-72
2022/10/23 00:13:45;;;;;;;6.95;3.85;;;;;;;8.68;100.00;96091.84;1026835;28;20045;-74
2022/10/23 00:14:18;;;;;;;7.03;4.28;;;;;;;8.62;100.00;96076.34;1030718;28;20029;-72
2022/10/23 00:14:48;;;;;;;6.53;3.72;;;;;;;8.66;100.00;96086.06;1030556;28;20224;-72
2022/10/23 00:15:19;;;;;;;6.95;4.15;;;;;;;8.70;100.00;96091.59;1026904;28;20270;-72
2022/10/23 00:15:50;;;;;;;5.00;3.50;;;;;;;8.69;100.00;96090.81;1027342;28;20046;-73
2022/10/23 00:16:20;;;;;;;8.52;3.63;;;;;;;8.69;100.00;96088.22;1030953;28;20352;-73
2022/10/23 00:16:51;;;;;;;4.90;3.67;;;;;;;8.65;100.00;96087.13;1030861;28;20505;-73
2022/10/23 00:17:21;;;;;;;9.48;3.95;;;;;;;8.67;100.00;96081.63;1029301;28;20098;-73
2022/10/23 00:17:52;;;;;;;6.43;3.60;;;;;;;8.70;100.00;96092.41;1026808;28;20023;-71
2022/10/23 00:18:22;;;;;;;5.07;3.88;;;;;;;8.68;100.00;96091.03;1036379;28;20022;-72
2022/10/23 00:18:53;;;;;;;9.45;3.80;;;;;;;8.68;100.00;96094.44;1038808;28;20025;-74
2022/10/23 00:19:23;;;;;;;6.28;4.47;;;;;;;8.66;100.00;96088.69;1034753;28;20025;-72
2022/10/23 00:19:53;;;;;;;7.65;3.55;;;;;;;8.61;100.00;96080.75;1030677;28;20026;-71
2022/10/23 00:20:24;;;;;;;5.55;3.85;;;;;;;8.65;100.00;96081.88;1030909;28;20018;-72
2022/10/23 00:20:55;;;;;;;4.55;3.20;;;;;;;8.64;100.00;96084.72;1030663;28;20026;-72
2022/10/23 00:21:25;;;;;;;6.93;3.80;;;;;;;8.57;100.00;96074.44;1034969;28;20017;-74
2022/10/23 00:21:56;;;;;;;5.80;3.72;;;;;;;8.62;100.00;96089.41;1030815;28;20018;-72
2022/10/23 00:22:27;;;;;;;8.20;4.03;;;;;;;8.62;100.00;96082.38;1030194;28;20077;-72
2022/10/23 00:22:57;;;;;;;8.95;4.30;;;;;;;8.61;100.00;96078.13;1030595;28;20022;-72
2022/10/23 00:23:27;;;;;;;5.55;3.85;;;;;;;8.60;100.00;96084.41;1030899;28;20137;-72
2022/10/23 00:23:58;;;;;;;9.38;3.95;;;;;;;8.57;100.00;96078.88;1034972;28;20026;-71
2022/10/23 00:24:28;;;;;;;6.65;3.85;;;;;;;8.58;100.00;96086.47;1042868;28;20017;-73
2022/10/23 00:24:59;;;;;;;6.40;3.40;;;;;;;8.57;100.00;96087.50;1042682;28;20593;-73
2022/10/23 00:25:29;;;;;;;7.72;3.65;;;;;;;8.56;100.00;96077.31;1030519;28;20034;-71
2022/10/23 00:26:00;;;;;;;6.07;3.75;;;;;;;8.57;100.00;96076.25;1022544;28;20086;-72
2022/10/23 00:26:31;;;;;;;10.35;3.85;;;;;;;8.52;100.00;96071.75;1030461;28;20018;-73
2022/10/23 00:27:01;;;;;;;6.85;4.00;;;;;;;8.49;100.00;96067.00;1028850;28;20022;-72
2022/10/23 00:27:32;;;;;;;5.80;3.80;;;;;;;8.47;100.00;96067.22;1030327;28;20018;-73
2022/10/23 00:28:02;;;;;;;6.47;4.00;;;;;;;8.56;100.00;96070.25;1030307;28;20519;-70
2022/10/23 00:28:33;;;;;;;7.05;3.67;;;;;;;8.48;100.00;96068.03;1035596;28;20041;-73
2022/10/23 00:29:04;;;;;;;6.93;4.45;;;;;;;8.52;100.00;96063.91;1030591;28;20431;-72
2022/10/23 00:29:34;;;;;;;6.20;4.00;;;;;;;8.50;100.00;96074.59;1030372;28;20270;-72
2022/10/23 00:30:05;;;;;;;7.13;4.40;;;;;;;8.49;100.00;96067.78;1034782;28;20021;-73
2022/10/23 00:30:36;;;;;;;8.10;4.07;;;;;;;8.48;100.00;96070.63;1026927;28;20531;-74
2022/10/23 00:31:06;;;;;;;6.85;3.55;;;;;;;8.47;100.00;96074.28;1030568;28;20277;-71
2022/10/23 00:31:37;;;;;;;7.03;4.03;;;;;;;8.44;100.00;96069.53;1026653;28;20019;-72
2022/10/23 00:32:07;;;;;;;5.82;4.00;;;;;;;8.43;100.00;96078.44;1026779;28;20078;-70
2022/10/23 00:32:37;;;;;;;6.35;3.85;;;;;;;8.37;100.00;96074.13;1019141;28;20047;-71
2022/10/23 00:33:09;;;;;;;6.53;3.95;;;;;;;8.36;100.00;96075.16;1026824;28;20145;-73
2022/10/23 00:33:39;;;;;;;5.32;3.65;;;;;;;8.32;100.00;96067.00;1026907;28;20058;-72
2022/10/23 00:34:10;;;;;;;7.15;3.95;;;;;;;8.32;100.00;96068.84;1030510;28;20257;-72
2022/10/23 00:34:40;;;;;;;5.20;3.45;;;;;;;8.32;100.00;96066.22;1030674;28;20472;-73
2022/10/23 00:35:11;;;;;;;6.38;3.90;;;;;;;8.30;100.00;96063.03;1026553;28;20085;-72
2022/10/23 00:35:41;;;;;;;5.90;3.72;;;;;;;8.23;100.00;96053.53;1026493;28;20570;-73
2022/10/23 00:36:13;;;;;;;5.90;4.05;;;;;;;8.22;100.00;96054.56;1026701;28;20653;-73
2022/10/23 00:36:43;;;;;;;7.32;4.05;;;;;;;8.26;100.00;96062.72;1027071;28;20023;-73
2022/10/23 00:37:14;;;;;;;5.43;3.97;;;;;;;8.16;100.00;96052.91;1026378;28;20269;-73
2022/10/23 00:37:44;;;;;;;5.88;4.00;;;;;;;8.23;100.00;96065.81;1029871;28;20022;-70
2022/10/23 00:38:14;;;;;;;12.05;3.88;;;;;;;8.21;100.00;96066.03;1030536;28;20506;-74
2022/10/23 00:38:45;;;;;;;7.55;3.67;;;;;;;8.22;100.00;96064.25;1022747;28;20661;-72
2022/10/23 00:39:15;;;;;;;5.65;3.63;;;;;;;8.22;100.00;96062.41;1028052;28;20030;-72
2022/10/23 00:39:46;;;;;;;9.52;3.97;;;;;;;8.19;100.00;96062.91;1034672;28;20499;-71
2022/10/23 00:40:16;;;;;;;8.88;4.00;;;;;;;8.21;100.00;96065.25;1026522;28;20727;-71
2022/10/23 00:40:47;;;;;;;8.43;4.50;;;;;;;8.21;100.00;96070.47;1034557;28;20624;-71
2022/10/23 00:41:20;;;;;;;6.72;4.30;;;;;;;8.14;100.00;96054.97;1038572;28;20048;-73
2022/10/23 00:41:51;;;;;;;8.82;3.58;;;;;;;8.19;100.00;96068.13;1035044;28;20026;-72
2022/10/23 00:42:21;;;;;;;8.05;4.47;;;;;;;8.19;100.00;96070.72;1037773;28;20268;-72
2022/10/23 00:42:52;;;;;;;7.50;4.13;;;;;;;8.19;100.00;96065.50;1033514;28;20026;-72
2022/10/23 00:43:25;;;;;;;8.43;4.93;;;;;;;8.18;100.00;96057.88;1034607;28;20065;-73
2022/10/23 00:44:05;;;;;;;12.77;4.95;;;;;;;8.16;100.00;96057.34;1030612;28;20065;-73
2022/10/23 00:44:35;;;;;;;5.93;4.20;;;;;;;8.19;100.00;96073.34;1022482;28;20294;-73
2022/10/23 00:45:11;;;;;;;7.80;3.95;;;;;;;8.20;100.00;96074.91;1022605;29;20261;-73
2022/10/23 00:45:41;;;;;;;6.47;4.20;;;;;;;8.20;100.00;96064.47;1026284;28;20035;-72
2022/10/23 00:46:11;;;;;;;7.43;4.53;;;;;;;8.21;100.00;96067.88;1027121;28;20277;-72
2022/10/23 00:46:43;;;;;;;8.18;4.10;;;;;;;8.19;100.00;96075.97;1031376;28;20018;-71
2022/10/23 00:47:14;;;;;;;10.10;4.30;;;;;;;8.01;100.00;96050.06;1031090;28;20597;-70
2022/10/23 00:47:47;;;;;;;6.32;4.03;;;;;;;8.15;100.00;96071.44;1030480;28;20954;-73
2022/10/23 00:48:17;;;;;;;5.43;3.80;;;;;;;8.08;100.00;96069.00;1024346;28;20266;-72
2022/10/23 00:48:48;;;;;;;11.55;4.70;;;;;;;8.14;100.00;96075.88;1026624;28;20100;-72
2022/10/23 00:49:19;;;;;;;6.90;4.00;;;;;;;8.12;100.00;96072.72;1026737;28;20030;-73
2022/10/23 00:49:49;;;;;;;6.00;3.58;;;;;;;8.09;100.00;96073.19;1030582;28;20116;-71
2022/10/23 00:50:20;;;;;;;5.78;3.97;;;;;;;8.06;100.00;96062.44;1030634;28;20683;-69
2022/10/23 00:50:53;;;;;;;7.68;4.57;;;;;;;8.11;100.00;96065.09;1026760;28;20025;-72
2022/10/23 00:51:25;;;;;;;5.82;4.20;;;;;;;8.14;100.00;96070.66;1018476;29;20267;-71
2022/10/23 00:51:57;;;;;;;9.43;4.18;;;;;;;8.04;100.00;96060.03;1022483;29;20251;-73
2022/10/23 00:52:27;;;;;;;8.48;4.15;;;;;;;8.12;100.00;96070.09;1021927;29;20031;-71
2022/10/23 00:52:59;;;;;;;11.07;4.50;;;;;;;8.12;100.00;96070.09;1024664;28;20267;-70
2022/10/23 00:53:30;;;;;;;7.22;4.68;;;;;;;8.03;100.00;96058.47;1026555;28;20069;-71
2022/10/23 00:54:00;;;;;;;9.82;4.20;;;;;;;8.06;100.00;96062.44;1027039;28;20274;-72
2022/10/23 00:54:33;;;;;;;6.45;3.95;;;;;;;8.09;100.00;96065.34;1026582;28;20025;-71
2022/10/23 00:55:04;;;;;;;7.80;4.00;;;;;;;8.09;100.00;96072.41;1030808;28;20049;-72
2022/10/23 00:55:34;;;;;;;7.03;4.35;;;;;;;8.05;100.00;96064.25;1030345;28;20319;-71
2022/10/23 00:56:05;;;;;;;7.18;4.40;;;;;;;8.02;100.00;96064.72;1034563;28;20122;-72
2022/10/23 00:56:37;;;;;;;9.43;4.13;;;;;;;7.99;100.00;96060.75;1030591;28;20054;-74
2022/10/23 00:57:12;;;;;;;7.57;4.05;;;;;;;8.05;100.00;96072.09;1026657;28;20365;-71
2022/10/23 00:57:44;;;;;;;6.35;4.00;;;;;;;8.01;100.00;96056.09;1026705;28;20353;-72
2022/10/23 00:58:16;;;;;;;12.43;4.40;;;;;;;7.95;100.00;96051.81;1030298;28;20880;-72
2022/10/23 00:58:47;;;;;;;6.68;4.20;;;;;;;8.01;100.00;96068.34;1026614;28;20385;-72
2022/10/23 00:59:17;;;;;;;6.88;4.13;;;;;;;7.98;100.00;96061.81;1030291;28;20714;-71
2022/10/23 00:59:48;;;;;;;6.75;4.55;;;;;;;7.98;100.00;96069.63;1029581;28;20030;-73
2022/10/23 01:00:39;;;;;;;7.75;3.78;;;;;;;7.98;100.00;96060.97;1026646;28;20026;-73
2022/10/23 01:01:16;;;;;;;;;;;;;;;7.95;100.00;96064.88;1028365;28;20125;-73
2022/10/23 01:01:47;;;;;;;13.68;4.07;;;;;;;7.86;100.00;96053.22;1034357;28;19905;-71
2022/10/23 01:02:18;;;;;;;7.07;4.38;;;;;;;7.88;100.00;96052.97;1029513;28;20818;-72
2022/10/23 01:02:48;;;;;;;7.55;4.13;;;;;;;7.86;100.00;96057.66;1026553;28;20034;-72
2022/10/23 01:03:20;;;;;;;7.15;3.80;;;;;;;7.79;100.00;96044.75;1025846;28;20042;-72
2022/10/23 01:03:50;;;;;;;9.00;4.35;;;;;;;7.85;100.00;96058.72;1026526;28;20023;-71
2022/10/23 01:04:21;;;;;;;8.45;4.05;;;;;;;7.77;100.00;96049.41;1026525;28;20353;-73
2022/10/23 01:04:52;;;;;;;6.68;4.00;;;;;;;7.77;100.00;96046.81;1027269;28;20140;-73
2022/10/23 01:05:26;;;;;;;7.30;4.55;;;;;;;7.78;100.00;96054.44;1026566;28;20055;-70
2022/10/23 01:06:08;;;;;;;14.35;4.18;;;;;;;7.74;100.00;96049.91;1030427;28;20440;-72
2022/10/23 01:06:54;;;;;;;6.40;3.97;;;;;;;7.77;100.00;96055.44;1027247;28;20328;-72
2022/10/23 01:07:28;;;;;;;6.72;4.07;;;;;;;7.76;100.00;96053.06;1026609;28;20330;-72
2022/10/23 01:08:05;;;;;;;7.60;4.50;;;;;;;7.77;100.00;96060.66;1026479;28;20246;-73
2022/10/23 01:08:59;;;;;;;5.95;4.50;;;;;;;7.78;100.00;96056.25;1030389;28;20265;-72
2022/10/23 01:09:32;;;;;;;7.68;3.83;;;;;;;7.76;100.00;96060.91;1034388;28;20789;-73
2022/10/23 01:10:10;;;;;;;6.55;4.47;;;;;;;7.76;100.00;96058.28;1034519;28;20259;-73
2022/10/23 01:10:46;;;;;;;7.03;4.40;;;;;;;7.74;100.00;96058.50;1030230;28;20264;-71
2022/10/23 01:11:25;;;;;;;5.25;3.80;;;;;;;7.72;100.00;96057.97;1028646;28;20266;-72
2022/10/23 01:12:22;;;;;;;7.53;4.50;;;;;;;7.69;100.00;96053.22;1026409;28;20348;-71
2022/10/23 01:13:11;;;;;;;5.85;4.10;;;;;;;7.62;100.00;96042.13;1031272;28;20264;-72
2022/10/23 01:14:18;;;;;;;8.82;4.35;;;;;;;7.66;100.00;96052.91;1026249;28;20389;-74
2022/10/23 01:14:54;;;;;;;10.50;4.82;;;;;;;7.65;100.00;96048.72;1030525;28;20249;-73
2022/10/23 01:15:49;;;;;;;11.80;5.20;;;;;;;7.61;100.00;96045.75;1038172;28;20257;-72
2022/10/23 01:16:25;;;;;;;7.22;4.47;;;;;;;7.63;100.00;96054.16;1038641;28;20644;-72
2022/10/23 01:17:11;;;;;;;7.15;4.20;;;;;;;7.58;100.00;96048.88;1033823;28;20340;-73
2022/10/23 01:17:45;;;;;;;8.30;4.30;;;;;;;7.57;100.00;96045.44;1026585;28;20299;-72
2022/10/23 01:18:30;;;;;;;7.53;4.53;;;;;;;7.55;100.00;96047.50;1023083;28;20305;-73
2022/10/23 01:19:18;;;;;;;6.82;5.00;;;;;;;7.52;100.00;96045.38;1026434;28;20763;-71
2022/10/23 01:20:10;;;;;;;8.35;5.28;;;;;;;7.52;100.00;96047.97;1018991;28;20263;-73
2022/10/23 01:20:45;;;;;;;11.35;4.57;;;;;;;7.50;100.00;96057.06;1027706;28;20710;-72
2022/10/23 01:21:19;;;;;;;10.55;4.50;;;;;;;7.49;100.00;96051.06;1028004;28;20270;-72
2022/10/23 01:22:21;;;;;;;9.80;4.65;;;;;;;7.48;100.00;96056.53;1025530;28;20265;-71
2022/10/23 01:23:11;;;;;;;12.90;5.25;;;;;;;7.49;100.00;96058.09;1022780;28;20345;-73
2022/10/23 01:23:47;;;;;;;5.53;4.22;;;;;;;7.48;100.00;96056.53;1040988;28;20264;-71
2022/10/23 01:24:46;;;;;;;9.52;5.88;;;;;;;7.48;100.00;96057.31;1039152;28;20260;-73
2022/10/23 01:25:34;;;;;;;10.80;4.80;;;;;;;7.48;100.00;96056.53;1034631;28;20741;-73
2022/10/23 01:26:22;;;;;;;7.78;5.07;;;;;;;7.50;100.00;96054.47;1037670;28;20261;-72
2022/10/23 01:27:13;;;;;;;11.43;6.05;;;;;;;7.45;100.00;96041.34;1027440;28;20269;-73
2022/10/23 01:27:45;;;;;;;11.70;5.95;;;;;;;7.49;100.00;96047.66;1027208;28;20841;-73
2022/10/23 01:28:21;;;;;;;9.50;5.63;;;;;;;7.53;100.00;96048.75;1019010;29;20397;-71
2022/10/23 01:29:09;;;;;;;8.95;5.65;;;;;;;7.51;100.00;96040.38;1026611;28;20890;-73
2022/10/23 01:29:58;;;;;;;9.80;5.05;;;;;;;7.53;100.00;96040.94;1026843;28;20270;-73
2022/10/23 01:30:28;;;;;;;8.20;5.60;;;;;;;7.56;100.00;96043.06;1027014;28;20627;-72
2022/10/23 01:30:59;;;;;;;13.70;5.90;;;;;;;7.51;100.00;96028.13;1023985;28;20263;-72
2022/10/23 01:31:42;;;;;;;8.93;5.50;;;;;;;7.57;100.00;96035.00;1019004;29;20059;-74
2022/10/23 01:32:14;;;;;;;11.02;4.85;;;;;;;7.49;100.00;96019.72;1026405;28;20058;-70
2022/10/23 01:32:48;;;;;;;10.48;5.72;;;;;;;7.55;100.00;96036.28;1026473;28;20273;-72
2022/10/23 01:33:26;;;;;;;9.02;5.65;;;;;;;7.57;100.00;96036.81;1033396;28;20280;-73
2022/10/23 01:33:59;;;;;;;7.15;5.05;;;;;;;7.57;100.00;96037.59;1030690;28;20847;-73
2022/10/23 01:34:47;;;;;;;8.35;5.10;;;;;;;7.50;100.00;96023.91;1031078;28;20261;-72
2022/10/23 01:35:23;;;;;;;7.20;5.07;;;;;;;7.50;100.00;96023.13;1026879;28;20351;-73
2022/10/23 01:36:01;;;;;;;9.82;5.97;;;;;;;7.56;100.00;96032.63;1022700;28;20290;-73
2022/10/23 01:36:33;;;;;;;10.27;5.30;;;;;;;7.56;100.00;96027.41;1026816;28;20274;-71
2022/10/23 01:37:03;;;;;;;13.20;6.05;;;;;;;7.51;100.00;96014.25;1030955;28;20277;-72
2022/10/23 01:37:45;;;;;;;10.43;5.45;;;;;;;7.59;100.00;96031.38;1034680;28;20261;-73
2022/10/23 01:38:47;;;;;;;12.48;5.88;;;;;;;7.54;100.00;96016.41;1026748;28;20023;-72
2022/10/23 01:39:23;;;;;;;8.70;5.20;;;;;;;7.60;100.00;96017.28;1013159;28;20277;-72
2022/10/23 01:39:54;;;;;;;15.35;6.63;;;;;;;7.56;100.00;96006.53;1026764;28;20871;-73
2022/10/23 01:40:27;;;;;;;12.60;6.40;;;;;;;7.68;100.00;96025.53;1031027;28;20293;-71
2022/10/23 01:41:01;;;;;;;8.63;5.80;;;;;;;7.69;100.00;96027.09;1022764;29;20535;-72
2022/10/23 01:41:54;;;;;;;12.25;6.70;;;;;;;7.67;100.00;96029.16;1018795;29;20343;-72
2022/10/23 01:42:29;;;;;;;11.23;5.57;;;;;;;7.63;100.00;96017.59;1026279;28;20955;-72
2022/10/23 01:43:03;;;;;;;9.70;5.95;;;;;;;7.70;100.00;96028.69;1019011;29;20677;-72
2022/10/23 01:43:38;;;;;;;8.55;6.05;;;;;;;7.64;100.00;96019.16;1022782;29;20802;-73
2022/10/23 01:44:30;;;;;;;13.77;5.85;;;;;;;7.60;100.00;96012.84;1022751;29;20255;-71
2022/10/23 01:45:06;;;;;;;8.55;5.47;;;;;;;7.68;100.00;96028.16;1030906;28;20273;-72
2022/10/23 01:45:39;;;;;;;12.20;5.55;;;;;;;7.66;100.00;96034.63;1034980;28;20276;-72
2022/10/23 01:46:11;;;;;;;11.60;5.80;;;;;;;7.67;100.00;96028.38;1028896;28;20382;-72
2022/10/23 01:46:42;;;;;;;7.05;5.32;;;;;;;7.66;100.00;96030.19;1031044;28;20861;-72
2022/10/23 01:47:14;;;;;;;10.32;5.55;;;;;;;7.64;100.00;96028.84;1035008;28;20284;-72
2022/10/23 01:47:45;;;;;;;12.77;5.65;;;;;;;7.66;100.00;96032.81;1024079;28;20322;-71
2022/10/23 01:48:17;;;;;;;10.98;5.43;;;;;;;7.65;100.00;96035.66;1030796;28;20299;-72
2022/10/23 01:48:50;;;;;;;9.68;5.57;;;;;;;7.63;100.00;96038.50;1030929;28;20017;-73
2022/10/23 01:49:21;;;;;;;10.43;5.72;;;;;;;7.61;100.00;96027.47;1030280;28;20297;-73
2022/10/23 01:49:51;;;;;;;7.10;5.45;;;;;;;7.64;100.00;96027.00;1022933;29;20593;-71
2022/10/23 01:50:22;;;;;;;9.55;5.57;;;;;;;7.59;100.00;96024.31;1026837;28;20031;-71
2022/10/23 01:50:53;;;;;;;8.43;5.13;;;;;;;7.62;100.00;96036.13;1022778;29;20030;-71
2022/10/23 01:51:25;;;;;;;12.23;5.65;;;;;;;7.52;100.00;96026.31;1018890;29;20103;-72
2022/10/23 01:51:56;;;;;;;7.03;4.63;;;;;;;7.53;100.00;96030.50;1018925;29;20267;-73
2022/10/23 01:52:27;;;;;;;14.63;5.20;;;;;;;7.56;100.00;96033.41;1030023;28;20641;-72
2022/10/23 01:52:57;;;;;;;10.40;4.82;;;;;;;7.55;100.00;96033.66;1030697;28;20544;-73
2022/10/23 01:53:29;;;;;;;8.30;4.97;;;;;;;7.53;100.00;96038.31;1035067;28;20379;-74
2022/10/23 01:54:00;;;;;;;9.45;5.22;;;;;;;7.46;100.00;96030.63;1030961;28;20026;-72
2022/10/23 01:54:33;;;;;;;7.60;4.80;;;;;;;7.49;100.00;96032.78;1022726;28;20270;-73
2022/10/23 01:55:03;;;;;;;6.90;4.50;;;;;;;7.51;100.00;96032.53;1027076;28;20102;-71
2022/10/23 01:55:34;;;;;;;17.60;5.60;;;;;;;7.51;100.00;96035.16;1026801;28;20262;-72
2022/10/23 01:56:06;;;;;;;6.85;5.20;;;;;;;7.52;100.00;96034.94;1022811;29;20099;-71
2022/10/23 01:56:37;;;;;;;9.20;5.45;;;;;;;7.51;100.00;96032.53;1022668;29;20019;-73
2022/10/23 01:57:10;;;;;;;5.13;4.30;;;;;;;7.47;100.00;96019.16;1026947;28;20265;-73
2022/10/23 01:57:40;;;;;;;11.43;4.90;;;;;;;7.45;100.00;96016.00;1026996;28;20277;-72
2022/10/23 01:58:11;;;;;;;9.07;4.80;;;;;;;7.53;100.00;96027.88;1029130;28;20606;-72
2022/10/23 01:58:42;;;;;;;10.57;5.57;;;;;;;7.53;100.00;96022.66;1022899;29;20071;-73
2022/10/23 01:59:15;;;;;;;8.38;5.15;;;;;;;7.55;100.00;96021.41;1026841;28;20035;-72
2022/10/23 01:59:48;;;;;;;7.13;5.00;;;;;;;7.54;100.00;96014.59;1030751;28;20353;-71
2022/10/23 02:00:19;;;;;;;8.45;5.18;;;;;;;7.51;100.00;95998.59;1031015;28;20302;-72
2022/10/23 02:00:50;;;;;;;9.48;5.60;;;;;;;7.55;100.00;96010.97;1026589;28;20691;-72
2022/10/23 02:01:22;;;;;;;8.82;5.95;;;;;;;7.56;100.00;96006.53;1030841;28;20026;-72
2022/10/23 02:01:53;;;;;;;14.43;5.57;;;;;;;7.60;100.00;96012.06;1026927;28;20667;-71
2022/10/23 02:02:23;;;;;;;11.30;6.07;;;;;;;7.60;100.00;96010.22;1018376;29;20299;-72
2022/10/23 02:02:54;;;;;;;9.48;6.20;;;;;;;7.54;100.00;96000.72;1026272;28;20730;-73
2022/10/23 02:03:25;;;;;;;9.88;5.63;;;;;;;7.61;100.00;96009.19;1018943;29;20020;-71
2022/10/23 02:03:56;;;;;;;8.77;5.82;;;;;;;7.55;100.00;95995.28;1018853;29;20047;-71
2022/10/23 02:04:30;;;;;;;12.13;6.35;;;;;;;7.61;100.00;96001.38;1015161;29;20734;-72
2022/10/23 02:05:08;;;;;;;8.75;5.95;;;;;;;7.60;100.00;96001.63;1021563;29;20018;-72
2022/10/23 02:05:38;;;;;;;13.15;5.82;;;;;;;7.51;100.00;95985.53;1027088;28;20290;-73
2022/10/23 02:06:09;;;;;;;9.90;6.10;;;;;;;7.59;100.00;96002.66;1030998;28;20249;-72
2022/10/23 02:06:39;;;;;;;10.27;6.70;;;;;;;7.59;100.00;96002.66;1026685;28;20066;-72
2022/10/23 02:07:09;;;;;;;13.32;5.85;;;;;;;7.56;100.00;95998.69;1022822;29;20035;-72
2022/10/23 02:07:40;;;;;;;14.13;6.05;;;;;;;7.56;100.00;96001.28;1034874;28;20095;-73
2022/10/23 02:08:10;;;;;;;12.40;6.78;;;;;;;7.52;100.00;96000.97;1034745;28;20021;-73
2022/10/23 02:08:41;;;;;;;12.70;6.70;;;;;;;7.54;100.00;96004.16;1031183;28;20022;-72
2022/10/23 02:09:11;;;;;;;12.05;5.53;;;;;;;7.52;100.00;96003.59;1026602;28;20026;-72
2022/10/23 02:09:42;;;;;;;9.70;6.20;;;;;;;7.46;100.00;95990.69;1023221;28;20805;-74
2022/10/23 02:10:12;;;;;;;10.80;5.35;;;;;;;7.52;100.00;96002.81;1026692;28;20015;-72
2022/10/23 02:10:53;;;;;;;8.20;5.78;;;;;;;7.53;100.00;96001.78;1022763;28;20019;-72
2022/10/23 02:11:24;;;;;;;8.93;5.82;;;;;;;7.52;100.00;96008.03;1031044;28;20017;-73
2022/10/23 02:12:16;;;;;;;10.70;6.07;;;;;;;7.51;100.00;96009.03;1030633;28;20261;-73
2022/10/23 02:12:55;;;;;;;8.80;5.63;;;;;;;7.50;100.00;96002.22;1035098;28;20017;-71
2022/10/23 02:13:50;;;;;;;12.13;5.78;;;;;;;7.48;100.00;96010.31;1037462;28;20252;-71
2022/10/23 02:14:33;;;;;;;10.27;5.75;;;;;;;7.48;100.00;96007.72;1035396;28;20279;-72
2022/10/23 02:15:31;;;;;;;10.10;5.20;;;;;;;7.49;100.00;96001.44;1041054;28;20240;-72
2022/10/23 02:16:15;;;;;;;8.95;5.47;;;;;;;7.43;100.00;95996.38;1039416;28;20284;-72
2022/10/23 02:16:49;;;;;;;10.05;5.85;;;;;;;7.47;100.00;96000.09;1041450;28;20395;-72
2022/10/23 02:17:28;;;;;;;8.48;5.60;;;;;;;7.46;100.00;95995.91;1040273;28;20287;-72
2022/10/23 02:18:06;;;;;;;9.35;5.82;;;;;;;7.46;100.00;96004.53;1034957;28;20256;-73
2022/10/23 02:18:42;;;;;;;8.60;5.47;;;;;;;7.44;100.00;96003.97;1030553;28;20273;-72
2022/10/23 02:19:30;;;;;;;9.45;5.78;;;;;;;7.40;100.00;95996.84;1019981;29;20311;-72
2022/10/23 02:20:26;;;;;;;9.82;5.97;;;;;;;7.41;100.00;96003.66;1027781;28;20274;-72
2022/10/23 02:21:03;;;;;;;10.88;5.68;;;;;;;7.38;100.00;96009.34;1038877;28;20306;-72
2022/10/23 02:21:41;;;;;;;9.75;5.50;;;;;;;7.35;100.00;95997.56;1038553;28;20314;-73
2022/10/23 02:22:12;;;;;;;8.60;5.28;;;;;;;7.35;100.00;96005.41;1022256;29;20353;-69
2022/10/23 02:22:56;;;;;;;11.38;5.00;;;;;;;7.34;100.00;96003.78;1026536;28;20671;-72
2022/10/23 02:23:36;;;;;;;11.57;5.25;;;;;;;7.28;100.00;96000.31;1022782;28;20118;-74
2022/10/23 02:24:11;;;;;;;8.70;5.00;;;;;;;7.26;100.00;95998.97;1029351;28;20258;-73
2022/10/23 02:24:53;;;;;;;7.53;4.97;;;;;;;7.29;100.00;96001.91;1030850;28;20037;-72
2022/10/23 02:25:30;;;;;;;10.77;5.43;;;;;;;7.21;100.00;95997.06;1022683;28;20340;-71
2022/10/23 02:26:07;;;;;;;8.90;5.45;;;;;;;7.19;100.00;95995.72;1030647;28;20341;-72
2022/10/23 02:26:40;;;;;;;8.90;5.15;;;;;;;7.26;100.00;96002.34;1024115;28;20262;-73
2022/10/23 02:27:12;;;;;;;6.80;5.07;;;;;;;7.25;100.00;96002.59;1027448;28;20258;-71
2022/10/23 02:27:51;;;;;;;8.93;5.20;;;;;;;7.19;100.00;95995.72;1026058;28;20261;-72
2022/10/23 02:28:24;;;;;;;11.50;5.03;;;;;;;7.20;100.00;96003.28;1026299;28;20298;-72
2022/10/23 02:29:03;;;;;;;7.55;5.38;;;;;;;7.15;100.00;95998.00;1026414;28;20662;-72
2022/10/23 02:29:37;;;;;;;7.63;5.22;;;;;;;7.20;100.00;96008.50;1030478;28;20880;-73
2022/10/23 02:30:09;;;;;;;10.05;4.93;;;;;;;7.19;100.00;95999.13;1026099;28;20253;-72
2022/10/23 02:30:40;;;;;;;11.30;5.00;;;;;;;7.19;100.00;96006.94;1026841;28;20755;-71
2022/10/23 02:31:12;;;;;;;9.57;5.22;;;;;;;7.18;100.00;96005.38;1026313;28;20262;-71
2022/10/23 02:31:42;;;;;;;6.43;4.50;;;;;;;7.12;100.00;96000.28;1030501;28;20563;-71
2022/10/23 02:32:13;;;;;;;6.25;4.65;;;;;;;7.15;100.00;96005.03;1029889;28;20276;-70
2022/10/23 02:32:45;;;;;;;8.02;4.90;;;;;;;7.14;100.00;96006.84;1022392;28;20426;-74
2022/10/23 02:33:16;;;;;;;8.93;5.07;;;;;;;7.06;100.00;95989.75;1023274;28;20049;-72
2022/10/23 02:33:46;;;;;;;7.93;4.70;;;;;;;7.13;100.00;96004.47;1023280;28;20387;-73
2022/10/23 02:34:17;;;;;;;7.82;5.03;;;;;;;7.13;100.00;96007.09;1030213;28;20006;-74
2022/10/23 02:34:47;;;;;;;17.67;5.05;;;;;;;7.04;100.00;95989.22;1030690;28;20014;-73
2022/10/23 02:35:19;;;;;;;6.78;4.85;;;;;;;7.13;100.00;96001.84;1026692;28;20011;-73
2022/10/23 02:35:50;;;;;;;6.72;4.55;;;;;;;7.07;100.00;95993.13;1031880;28;20033;-73
2022/10/23 02:36:20;;;;;;;9.13;4.88;;;;;;;7.06;100.00;95991.56;1034342;28;20272;-73
2022/10/23 02:36:51;;;;;;;7.68;4.90;;;;;;;7.15;100.00;95994.59;1030617;28;20399;-73
2022/10/23 02:37:21;;;;;;;9.45;5.03;;;;;;;7.14;100.00;95999.00;1030716;28;20022;-72
2022/10/23 02:37:57;;;;;;;8.40;5.20;;;;;;;7.16;100.00;95990.97;1026588;28;20034;-72
2022/10/23 02:38:41;;;;;;;10.90;5.35;;;;;;;7.14;100.00;95996.41;1026680;28;20050;-73
2022/10/23 02:39:11;;;;;;;9.50;5.28;;;;;;;7.14;100.00;95991.19;1023380;28;20275;-71
2022/10/23 02:39:41;;;;;;;7.53;5.10;;;;;;;7.16;100.00;95989.13;1029218;28;20318;-73
2022/10/23 02:40:12;;;;;;;7.00;4.80;;;;;;;7.16;100.00;95991.75;1028333;28;20026;-74
2022/10/23 02:40:42;;;;;;;10.48;5.47;;;;;;;6.95;100.00;95961.13;1030496;28;20038;-72
2022/10/23 02:41:16;;;;;;;9.75;5.80;;;;;;;7.16;100.00;95993.56;1026823;28;20026;-73